Terminal Aerodrome Forecast
Issued by NWS

Current Version | Previous Version | Text Only | Print | Product List | Glossary On
Versions: 1 2 3 4 5 6 7 8 9 10 11 12 13 14
000
FTUS43 KGRR 252332
TAFJXN
TAF
KJXN 252332Z 2600/2624 26010G16KT P6SM FEW060
     FM260200 26008KT P6SM SCT200
     FM260900 25007KT P6SM SCT050
     FM261300 27012KT P6SM BKN050
     FM261700 27017G27KT P6SM BKN090=

USA.gov is the U.S. government's official web portal to all federal, state and local government web resources and services.